sensor_id;sensor_type;location;lat;lon;timestamp;P1;durP1;ratioP1;P2;durP2;ratioP2
37459;SDS011;23318;50.966;5.284;2023-03-13T00:01:56;24.42;;;5.22;;
37459;SDS011;23318;50.966;5.284;2023-03-13T00:04:22;24.70;;;4.25;;
37459;SDS011;23318;50.966;5.284;2023-03-13T00:06:49;20.80;;;3.40;;
37459;SDS011;23318;50.966;5.284;2023-03-13T00:09:15;15.35;;;3.55;;
37459;SDS011;23318;50.966;5.284;2023-03-13T00:11:41;19.20;;;4.40;;
37459;SDS011;23318;50.966;5.284;2023-03-13T00:14:08;23.15;;;4.07;;
37459;SDS011;23318;50.966;5.284;2023-03-13T00:16:34;21.45;;;3.63;;
37459;SDS011;23318;50.966;5.284;2023-03-13T00:19:01;23.60;;;4.75;;
37459;SDS011;23318;50.966;5.284;2023-03-13T00:21:28;22.27;;;4.50;;
37459;SDS011;23318;50.966;5.284;2023-03-13T00:23:54;18.23;;;4.40;;
37459;SDS011;23318;50.966;5.284;2023-03-13T00:26:21;24.20;;;3.53;;
37459;SDS011;23318;50.966;5.284;2023-03-13T00:28:49;18.60;;;4.28;;
37459;SDS011;23318;50.966;5.284;2023-03-13T00:31:20;19.20;;;3.97;;
37459;SDS011;23318;50.966;5.284;2023-03-13T00:33:48;19.67;;;4.47;;
37459;SDS011;23318;50.966;5.284;2023-03-13T00:36:23;21.02;;;3.80;;
37459;SDS011;23318;50.966;5.284;2023-03-13T00:38:51;20.17;;;3.78;;
37459;SDS011;23318;50.966;5.284;2023-03-13T00:41:19;20.17;;;3.42;;
37459;SDS011;23318;50.966;5.284;2023-03-13T00:43:46;22.38;;;4.72;;
37459;SDS011;23318;50.966;5.284;2023-03-13T00:46:15;18.05;;;3.45;;
37459;SDS011;23318;50.966;5.284;2023-03-13T00:48:43;21.33;;;3.75;;
37459;SDS011;23318;50.966;5.284;2023-03-13T00:51:09;19.60;;;4.97;;
37459;SDS011;23318;50.966;5.284;2023-03-13T00:53:35;13.93;;;3.22;;
37459;SDS011;23318;50.966;5.284;2023-03-13T00:56:09;12.85;;;3.17;;
37459;SDS011;23318;50.966;5.284;2023-03-13T00:58:37;20.35;;;4.75;;
37459;SDS011;23318;50.966;5.284;2023-03-13T01:01:08;14.13;;;3.10;;
37459;SDS011;23318;50.966;5.284;2023-03-13T01:03:36;16.35;;;3.45;;
37459;SDS011;23318;50.966;5.284;2023-03-13T01:06:02;16.08;;;3.30;;
37459;SDS011;23318;50.966;5.284;2023-03-13T01:08:30;15.80;;;3.20;;
37459;SDS011;23318;50.966;5.284;2023-03-13T01:11:04;15.75;;;2.85;;
37459;SDS011;23318;50.966;5.284;2023-03-13T01:13:31;12.23;;;2.70;;
37459;SDS011;23318;50.966;5.284;2023-03-13T01:16:00;15.10;;;3.30;;
37459;SDS011;23318;50.966;5.284;2023-03-13T01:18:27;18.08;;;3.08;;
37459;SDS011;23318;50.966;5.284;2023-03-13T01:20:53;12.77;;;3.15;;
37459;SDS011;23318;50.966;5.284;2023-03-13T01:23:19;13.65;;;2.83;;
37459;SDS011;23318;50.966;5.284;2023-03-13T01:25:44;16.33;;;3.08;;
37459;SDS011;23318;50.966;5.284;2023-03-13T01:28:10;15.43;;;3.67;;
37459;SDS011;23318;50.966;5.284;2023-03-13T01:30:36;8.77;;;2.25;;
37459;SDS011;23318;50.966;5.284;2023-03-13T01:33:02;11.93;;;2.63;;
37459;SDS011;23318;50.966;5.284;2023-03-13T01:35:27;11.13;;;2.85;;
37459;SDS011;23318;50.966;5.284;2023-03-13T01:37:53;5.85;;;2.20;;
37459;SDS011;23318;50.966;5.284;2023-03-13T01:40:19;13.35;;;2.90;;
37459;SDS011;23318;50.966;5.284;2023-03-13T01:43:11;8.02;;;1.70;;
37459;SDS011;23318;50.966;5.284;2023-03-13T01:45:57;4.40;;;1.80;;
37459;SDS011;23318;50.966;5.284;2023-03-13T01:51:05;8.07;;;1.83;;
37459;SDS011;23318;50.966;5.284;2023-03-13T01:53:40;9.35;;;1.95;;
37459;SDS011;23318;50.966;5.284;2023-03-13T01:56:15;11.52;;;1.88;;
37459;SDS011;23318;50.966;5.284;2023-03-13T01:58:44;6.05;;;1.63;;
37459;SDS011;23318;50.966;5.284;2023-03-13T02:01:11;6.65;;;1.77;;
37459;SDS011;23318;50.966;5.284;2023-03-13T02:03:39;5.18;;;2.10;;
37459;SDS011;23318;50.966;5.284;2023-03-13T02:06:06;7.00;;;2.75;;
37459;SDS011;23318;50.966;5.284;2023-03-13T02:08:52;6.40;;;2.08;;
37459;SDS011;23318;50.966;5.284;2023-03-13T02:11:29;5.88;;;2.75;;
37459;SDS011;23318;50.966;5.284;2023-03-13T02:14:12;7.63;;;2.65;;
37459;SDS011;23318;50.966;5.284;2023-03-13T02:16:37;8.52;;;2.92;;
37459;SDS011;23318;50.966;5.284;2023-03-13T02:19:13;4.22;;;2.90;;
37459;SDS011;23318;50.966;5.284;2023-03-13T02:22:00;8.23;;;3.97;;
37459;SDS011;23318;50.966;5.284;2023-03-13T02:27:27;7.47;;;3.70;;
37459;SDS011;23318;50.966;5.284;2023-03-13T02:29:52;7.93;;;3.97;;
37459;SDS011;23318;50.966;5.284;2023-03-13T02:32:18;8.65;;;4.72;;
37459;SDS011;23318;50.966;5.284;2023-03-13T02:34:46;8.15;;;3.72;;
37459;SDS011;23318;50.966;5.284;2023-03-13T02:37:17;6.72;;;4.00;;
37459;SDS011;23318;50.966;5.284;2023-03-13T02:39:45;7.15;;;4.30;;
37459;SDS011;23318;50.966;5.284;2023-03-13T02:42:14;7.05;;;4.85;;
37459;SDS011;23318;50.966;5.284;2023-03-13T02:44:44;7.05;;;5.50;;
37459;SDS011;23318;50.966;5.284;2023-03-13T02:47:11;9.55;;;5.10;;
37459;SDS011;23318;50.966;5.284;2023-03-13T02:49:38;11.00;;;5.80;;
37459;SDS011;23318;50.966;5.284;2023-03-13T02:54:42;6.97;;;5.07;;
37459;SDS011;23318;50.966;5.284;2023-03-13T02:57:11;8.63;;;5.68;;
37459;SDS011;23318;50.966;5.284;2023-03-13T02:59:37;9.32;;;5.22;;
37459;SDS011;23318;50.966;5.284;2023-03-13T03:02:03;7.60;;;5.65;;
37459;SDS011;23318;50.966;5.284;2023-03-13T03:04:30;7.97;;;4.63;;
37459;SDS011;23318;50.966;5.284;2023-03-13T03:06:57;7.00;;;5.07;;
37459;SDS011;23318;50.966;5.284;2023-03-13T03:09:23;7.97;;;4.63;;
37459;SDS011;23318;50.966;5.284;2023-03-13T03:11:49;7.28;;;5.13;;
37459;SDS011;23318;50.966;5.284;2023-03-13T03:14:15;8.15;;;4.55;;
37459;SDS011;23318;50.966;5.284;2023-03-13T03:16:41;6.25;;;4.43;;
37459;SDS011;23318;50.966;5.284;2023-03-13T03:19:08;10.68;;;4.40;;
37459;SDS011;23318;50.966;5.284;2023-03-13T03:21:37;5.22;;;3.72;;
37459;SDS011;23318;50.966;5.284;2023-03-13T03:24:03;8.68;;;3.65;;
37459;SDS011;23318;50.966;5.284;2023-03-13T03:26:29;8.88;;;3.90;;
37459;SDS011;23318;50.966;5.284;2023-03-13T03:28:55;8.10;;;4.22;;
37459;SDS011;23318;50.966;5.284;2023-03-13T03:31:20;5.00;;;3.67;;
37459;SDS011;23318;50.966;5.284;2023-03-13T03:33:47;4.82;;;3.25;;
37459;SDS011;23318;50.966;5.284;2023-03-13T03:36:14;4.93;;;3.38;;
37459;SDS011;23318;50.966;5.284;2023-03-13T03:38:41;3.28;;;2.97;;
37459;SDS011;23318;50.966;5.284;2023-03-13T03:41:08;3.38;;;2.97;;
37459;SDS011;23318;50.966;5.284;2023-03-13T03:43:36;3.85;;;2.55;;
37459;SDS011;23318;50.966;5.284;2023-03-13T03:46:02;4.88;;;2.65;;
37459;SDS011;23318;50.966;5.284;2023-03-13T03:48:28;4.90;;;3.22;;
37459;SDS011;23318;50.966;5.284;2023-03-13T03:50:54;3.03;;;2.72;;
37459;SDS011;23318;50.966;5.284;2023-03-13T03:53:19;4.28;;;3.00;;
37459;SDS011;23318;50.966;5.284;2023-03-13T03:55:45;4.22;;;3.15;;
37459;SDS011;23318;50.966;5.284;2023-03-13T03:58:11;4.60;;;3.08;;
37459;SDS011;23318;50.966;5.284;2023-03-13T04:00:37;4.93;;;3.05;;
37459;SDS011;23318;50.966;5.284;2023-03-13T04:03:02;2.50;;;2.15;;
37459;SDS011;23318;50.966;5.284;2023-03-13T04:05:28;4.20;;;2.28;;
37459;SDS011;23318;50.966;5.284;2023-03-13T04:07:54;5.53;;;2.50;;
37459;SDS011;23318;50.966;5.284;2023-03-13T04:10:20;3.95;;;2.38;;
37459;SDS011;23318;50.966;5.284;2023-03-13T04:12:45;3.42;;;2.53;;
37459;SDS011;23318;50.966;5.284;2023-03-13T04:15:11;4.07;;;2.20;;
37459;SDS011;23318;50.966;5.284;2023-03-13T04:17:37;3.55;;;2.72;;
37459;SDS011;23318;50.966;5.284;2023-03-13T04:20:03;3.60;;;2.20;;
37459;SDS011;23318;50.966;5.284;2023-03-13T04:22:29;3.63;;;2.55;;
37459;SDS011;23318;50.966;5.284;2023-03-13T04:24:56;4.28;;;2.20;;
37459;SDS011;23318;50.966;5.284;2023-03-13T04:27:22;6.75;;;2.92;;
37459;SDS011;23318;50.966;5.284;2023-03-13T04:29:48;4.05;;;2.45;;
37459;SDS011;23318;50.966;5.284;2023-03-13T04:32:13;5.57;;;2.15;;
37459;SDS011;23318;50.966;5.284;2023-03-13T04:34:39;4.30;;;1.90;;
37459;SDS011;23318;50.966;5.284;2023-03-13T04:37:04;5.75;;;2.80;;
37459;SDS011;23318;50.966;5.284;2023-03-13T04:39:30;6.82;;;2.47;;
37459;SDS011;23318;50.966;5.284;2023-03-13T04:41:56;4.93;;;2.58;;
37459;SDS011;23318;50.966;5.284;2023-03-13T04:44:21;3.70;;;2.17;;
37459;SDS011;23318;50.966;5.284;2023-03-13T04:46:48;4.22;;;2.20;;
37459;SDS011;23318;50.966;5.284;2023-03-13T04:49:14;4.80;;;2.05;;
37459;SDS011;23318;50.966;5.284;2023-03-13T04:51:40;4.28;;;2.35;;
37459;SDS011;23318;50.966;5.284;2023-03-13T04:54:07;5.15;;;2.45;;
37459;SDS011;23318;50.966;5.284;2023-03-13T04:56:33;4.35;;;2.20;;
37459;SDS011;23318;50.966;5.284;2023-03-13T04:58:59;4.75;;;2.30;;
37459;SDS011;23318;50.966;5.284;2023-03-13T05:01:25;3.92;;;2.30;;
37459;SDS011;23318;50.966;5.284;2023-03-13T05:03:51;7.18;;;2.70;;
37459;SDS011;23318;50.966;5.284;2023-03-13T05:06:16;7.10;;;2.22;;
37459;SDS011;23318;50.966;5.284;2023-03-13T05:08:42;3.35;;;1.95;;
37459;SDS011;23318;50.966;5.284;2023-03-13T05:11:08;5.03;;;1.58;;
37459;SDS011;23318;50.966;5.284;2023-03-13T05:13:34;4.97;;;2.25;;
37459;SDS011;23318;50.966;5.284;2023-03-13T05:15:59;4.03;;;1.80;;
37459;SDS011;23318;50.966;5.284;2023-03-13T05:18:25;5.70;;;2.17;;
37459;SDS011;23318;50.966;5.284;2023-03-13T05:20:51;5.15;;;2.13;;
37459;SDS011;23318;50.966;5.284;2023-03-13T05:23:17;5.80;;;2.08;;
37459;SDS011;23318;50.966;5.284;2023-03-13T05:25:43;2.85;;;1.48;;
37459;SDS011;23318;50.966;5.284;2023-03-13T05:28:08;3.50;;;1.88;;
37459;SDS011;23318;50.966;5.284;2023-03-13T05:30:34;4.60;;;2.13;;
37459;SDS011;23318;50.966;5.284;2023-03-13T05:33:00;5.55;;;2.10;;
37459;SDS011;23318;50.966;5.284;2023-03-13T05:35:26;3.47;;;1.40;;
37459;SDS011;23318;50.966;5.284;2023-03-13T05:37:51;3.42;;;2.10;;
37459;SDS011;23318;50.966;5.284;2023-03-13T05:40:17;4.57;;;1.80;;
37459;SDS011;23318;50.966;5.284;2023-03-13T05:42:43;6.07;;;2.53;;
37459;SDS011;23318;50.966;5.284;2023-03-13T05:45:10;4.25;;;1.75;;
37459;SDS011;23318;50.966;5.284;2023-03-13T05:47:36;7.88;;;2.80;;
37459;SDS011;23318;50.966;5.284;2023-03-13T05:50:03;4.53;;;1.80;;
37459;SDS011;23318;50.966;5.284;2023-03-13T05:52:29;7.70;;;2.03;;
37459;SDS011;23318;50.966;5.284;2023-03-13T05:54:55;6.93;;;2.08;;
37459;SDS011;23318;50.966;5.284;2023-03-13T05:57:21;5.28;;;1.80;;
37459;SDS011;23318;50.966;5.284;2023-03-13T05:59:47;6.60;;;2.08;;
37459;SDS011;23318;50.966;5.284;2023-03-13T06:02:13;7.05;;;2.17;;
37459;SDS011;23318;50.966;5.284;2023-03-13T06:04:38;6.03;;;2.28;;
37459;SDS011;23318;50.966;5.284;2023-03-13T06:07:04;6.30;;;2.50;;
37459;SDS011;23318;50.966;5.284;2023-03-13T06:09:30;6.43;;;2.22;;
37459;SDS011;23318;50.966;5.284;2023-03-13T06:11:56;6.43;;;2.38;;
37459;SDS011;23318;50.966;5.284;2023-03-13T06:14:21;11.32;;;2.10;;
37459;SDS011;23318;50.966;5.284;2023-03-13T06:16:47;9.30;;;2.38;;
37459;SDS011;23318;50.966;5.284;2023-03-13T06:19:13;7.00;;;2.13;;
37459;SDS011;23318;50.966;5.284;2023-03-13T06:21:38;5.40;;;2.13;;
37459;SDS011;23318;50.966;5.284;2023-03-13T06:24:04;8.32;;;2.90;;
37459;SDS011;23318;50.966;5.284;2023-03-13T06:26:30;7.63;;;2.10;;
37459;SDS011;23318;50.966;5.284;2023-03-13T06:28:57;9.07;;;2.78;;
37459;SDS011;23318;50.966;5.284;2023-03-13T06:31:22;6.00;;;2.30;;
37459;SDS011;23318;50.966;5.284;2023-03-13T06:33:51;9.15;;;2.22;;
37459;SDS011;23318;50.966;5.284;2023-03-13T06:36:18;6.45;;;2.40;;
37459;SDS011;23318;50.966;5.284;2023-03-13T06:38:44;12.02;;;2.88;;
37459;SDS011;23318;50.966;5.284;2023-03-13T06:41:10;6.80;;;1.85;;
37459;SDS011;23318;50.966;5.284;2023-03-13T06:43:35;6.97;;;2.08;;
37459;SDS011;23318;50.966;5.284;2023-03-13T06:46:04;6.65;;;1.83;;
37459;SDS011;23318;50.966;5.284;2023-03-13T06:48:31;5.60;;;2.20;;
37459;SDS011;23318;50.966;5.284;2023-03-13T06:50:57;8.65;;;2.30;;
37459;SDS011;23318;50.966;5.284;2023-03-13T06:53:22;8.40;;;2.35;;
37459;SDS011;23318;50.966;5.284;2023-03-13T06:55:48;5.00;;;1.85;;
37459;SDS011;23318;50.966;5.284;2023-03-13T06:58:15;5.43;;;1.98;;
37459;SDS011;23318;50.966;5.284;2023-03-13T07:00:41;8.68;;;2.85;;
37459;SDS011;23318;50.966;5.284;2023-03-13T07:03:08;7.90;;;2.15;;
37459;SDS011;23318;50.966;5.284;2023-03-13T07:05:35;8.82;;;2.30;;
37459;SDS011;23318;50.966;5.284;2023-03-13T07:08:01;8.77;;;2.72;;
37459;SDS011;23318;50.966;5.284;2023-03-13T07:10:27;7.50;;;2.45;;
37459;SDS011;23318;50.966;5.284;2023-03-13T07:12:54;6.45;;;2.40;;
37459;SDS011;23318;50.966;5.284;2023-03-13T07:15:20;8.20;;;2.08;;
37459;SDS011;23318;50.966;5.284;2023-03-13T07:17:46;7.45;;;1.98;;
37459;SDS011;23318;50.966;5.284;2023-03-13T07:20:11;10.75;;;2.65;;
37459;SDS011;23318;50.966;5.284;2023-03-13T07:22:37;6.60;;;2.22;;
37459;SDS011;23318;50.966;5.284;2023-03-13T07:25:03;11.57;;;2.35;;
37459;SDS011;23318;50.966;5.284;2023-03-13T07:27:29;11.85;;;3.17;;
37459;SDS011;23318;50.966;5.284;2023-03-13T07:29:55;8.85;;;2.70;;
37459;SDS011;23318;50.966;5.284;2023-03-13T07:32:21;8.75;;;2.45;;
37459;SDS011;23318;50.966;5.284;2023-03-13T07:34:47;8.50;;;2.45;;
37459;SDS011;23318;50.966;5.284;2023-03-13T07:37:13;8.07;;;2.38;;
37459;SDS011;23318;50.966;5.284;2023-03-13T07:39:40;4.45;;;2.42;;
37459;SDS011;23318;50.966;5.284;2023-03-13T07:42:08;9.60;;;2.50;;
37459;SDS011;23318;50.966;5.284;2023-03-13T07:44:35;8.20;;;2.10;;
37459;SDS011;23318;50.966;5.284;2023-03-13T07:47:01;11.00;;;2.90;;
37459;SDS011;23318;50.966;5.284;2023-03-13T07:49:27;7.70;;;2.08;;
37459;SDS011;23318;50.966;5.284;2023-03-13T07:51:52;7.00;;;2.53;;
37459;SDS011;23318;50.966;5.284;2023-03-13T07:54:18;10.95;;;2.63;;
37459;SDS011;23318;50.966;5.284;2023-03-13T07:56:44;7.40;;;2.80;;
37459;SDS011;23318;50.966;5.284;2023-03-13T07:59:09;5.75;;;1.90;;
37459;SDS011;23318;50.966;5.284;2023-03-13T08:01:35;5.93;;;2.00;;
37459;SDS011;23318;50.966;5.284;2023-03-13T08:04:01;11.85;;;2.67;;
37459;SDS011;23318;50.966;5.284;2023-03-13T08:06:28;9.35;;;2.28;;
37459;SDS011;23318;50.966;5.284;2023-03-13T08:08:56;9.57;;;2.60;;
37459;SDS011;23318;50.966;5.284;2023-03-13T08:11:23;8.15;;;2.42;;
37459;SDS011;23318;50.966;5.284;2023-03-13T08:13:50;12.90;;;2.83;;
37459;SDS011;23318;50.966;5.284;2023-03-13T08:16:21;4.97;;;1.65;;
37459;SDS011;23318;50.966;5.284;2023-03-13T08:18:49;12.65;;;3.10;;
37459;SDS011;23318;50.966;5.284;2023-03-13T08:21:23;4.38;;;1.42;;
37459;SDS011;23318;50.966;5.284;2023-03-13T08:23:53;6.07;;;3.40;;
37459;SDS011;23318;50.966;5.284;2023-03-13T08:26:21;7.32;;;2.72;;
37459;SDS011;23318;50.966;5.284;2023-03-13T08:28:51;11.10;;;2.92;;
37459;SDS011;23318;50.966;5.284;2023-03-13T08:31:22;11.90;;;3.35;;
37459;SDS011;23318;50.966;5.284;2023-03-13T08:33:52;7.22;;;2.60;;
37459;SDS011;23318;50.966;5.284;2023-03-13T08:36:22;6.75;;;2.88;;
37459;SDS011;23318;50.966;5.284;2023-03-13T08:38:50;9.77;;;2.60;;
37459;SDS011;23318;50.966;5.284;2023-03-13T08:41:18;6.85;;;2.22;;
37459;SDS011;23318;50.966;5.284;2023-03-13T08:43:45;10.93;;;2.60;;
37459;SDS011;23318;50.966;5.284;2023-03-13T08:46:11;6.18;;;2.50;;
37459;SDS011;23318;50.966;5.284;2023-03-13T08:48:38;6.25;;;2.30;;
37459;SDS011;23318;50.966;5.284;2023-03-13T08:51:04;5.97;;;2.40;;
37459;SDS011;23318;50.966;5.284;2023-03-13T08:53:32;7.47;;;3.30;;
37459;SDS011;23318;50.966;5.284;2023-03-13T08:55:59;6.20;;;2.90;;
37459;SDS011;23318;50.966;5.284;2023-03-13T08:58:25;8.88;;;2.85;;
37459;SDS011;23318;50.966;5.284;2023-03-13T09:00:51;8.68;;;3.25;;
37459;SDS011;23318;50.966;5.284;2023-03-13T09:03:16;7.22;;;2.70;;
37459;SDS011;23318;50.966;5.284;2023-03-13T09:05:43;8.65;;;2.38;;
37459;SDS011;23318;50.966;5.284;2023-03-13T09:08:10;8.80;;;2.22;;
37459;SDS011;23318;50.966;5.284;2023-03-13T09:10:35;6.03;;;2.30;;
37459;SDS011;23318;50.966;5.284;2023-03-13T09:13:01;7.13;;;2.22;;
37459;SDS011;23318;50.966;5.284;2023-03-13T09:15:27;4.32;;;1.70;;
37459;SDS011;23318;50.966;5.284;2023-03-13T09:17:53;4.47;;;1.98;;
37459;SDS011;23318;50.966;5.284;2023-03-13T09:20:18;5.32;;;2.05;;
37459;SDS011;23318;50.966;5.284;2023-03-13T09:22:44;5.82;;;2.15;;
37459;SDS011;23318;50.966;5.284;2023-03-13T09:25:11;6.00;;;2.25;;
37459;SDS011;23318;50.966;5.284;2023-03-13T09:27:37;4.50;;;1.73;;
37459;SDS011;23318;50.966;5.284;2023-03-13T09:30:04;11.32;;;2.50;;
37459;SDS011;23318;50.966;5.284;2023-03-13T09:32:31;5.95;;;1.70;;
37459;SDS011;23318;50.966;5.284;2023-03-13T09:34:57;3.50;;;1.42;;
37459;SDS011;23318;50.966;5.284;2023-03-13T09:37:23;7.90;;;1.98;;
37459;SDS011;23318;50.966;5.284;2023-03-13T09:39:49;6.15;;;1.58;;
37459;SDS011;23318;50.966;5.284;2023-03-13T09:42:23;2.67;;;1.33;;
37459;SDS011;23318;50.966;5.284;2023-03-13T09:45:07;3.42;;;1.75;;
37459;SDS011;23318;50.966;5.284;2023-03-13T09:50:16;4.03;;;1.70;;
37459;SDS011;23318;50.966;5.284;2023-03-13T09:52:54;4.57;;;1.85;;
37459;SDS011;23318;50.966;5.284;2023-03-13T09:55:29;9.30;;;2.00;;
37459;SDS011;23318;50.966;5.284;2023-03-13T10:03:28;7.10;;;1.30;;
37459;SDS011;23318;50.966;5.284;2023-03-13T10:06:00;4.82;;;1.70;;
37459;SDS011;23318;50.966;5.284;2023-03-13T10:08:31;4.63;;;1.98;;
37459;SDS011;23318;50.966;5.284;2023-03-13T10:11:10;3.65;;;1.27;;
37459;SDS011;23318;50.966;5.284;2023-03-13T10:18:57;4.53;;;1.05;;
37459;SDS011;23318;50.966;5.284;2023-03-13T10:21:25;1.33;;;0.95;;
37459;SDS011;23318;50.966;5.284;2023-03-13T10:24:03;3.47;;;1.17;;
37459;SDS011;23318;50.966;5.284;2023-03-13T10:26:47;1.90;;;1.00;;
37459;SDS011;23318;50.966;5.284;2023-03-13T10:29:16;4.13;;;1.33;;
37459;SDS011;23318;50.966;5.284;2023-03-13T10:31:44;3.58;;;1.48;;
37459;SDS011;23318;50.966;5.284;2023-03-13T10:34:19;3.80;;;1.63;;
37459;SDS011;23318;50.966;5.284;2023-03-13T10:36:45;4.80;;;1.65;;
37459;SDS011;23318;50.966;5.284;2023-03-13T10:39:20;5.03;;;1.00;;
37459;SDS011;23318;50.966;5.284;2023-03-13T10:41:47;5.53;;;0.95;;
37459;SDS011;23318;50.966;5.284;2023-03-13T10:44:15;2.05;;;1.08;;
37459;SDS011;23318;50.966;5.284;2023-03-13T10:46:44;3.83;;;1.10;;
37459;SDS011;23318;50.966;5.284;2023-03-13T10:49:13;2.40;;;1.17;;
37459;SDS011;23318;50.966;5.284;2023-03-13T10:51:44;3.92;;;0.98;;
37459;SDS011;23318;50.966;5.284;2023-03-13T10:54:23;4.20;;;1.00;;
37459;SDS011;23318;50.966;5.284;2023-03-13T10:56:51;3.85;;;1.00;;
37459;SDS011;23318;50.966;5.284;2023-03-13T10:59:31;2.65;;;1.15;;
37459;SDS011;23318;50.966;5.284;2023-03-13T11:02:00;3.10;;;0.70;;
37459;SDS011;23318;50.966;5.284;2023-03-13T11:04:31;1.85;;;0.68;;
37459;SDS011;23318;50.966;5.284;2023-03-13T11:07:10;1.48;;;0.80;;
37459;SDS011;23318;50.966;5.284;2023-03-13T11:09:43;1.85;;;0.85;;
37459;SDS011;23318;50.966;5.284;2023-03-13T11:12:44;3.72;;;1.02;;
37459;SDS011;23318;50.966;5.284;2023-03-13T11:20:41;5.88;;;0.90;;
37459;SDS011;23318;50.966;5.284;2023-03-13T11:23:28;2.50;;;0.88;;
37459;SDS011;23318;50.966;5.284;2023-03-13T11:31:10;2.97;;;0.90;;
37459;SDS011;23318;50.966;5.284;2023-03-13T11:36:41;1.08;;;0.50;;
37459;SDS011;23318;50.966;5.284;2023-03-13T11:47:14;3.42;;;0.57;;
37459;SDS011;23318;50.966;5.284;2023-03-13T11:50:10;1.88;;;0.50;;
37459;SDS011;23318;50.966;5.284;2023-03-13T11:52:53;2.05;;;0.60;;
37459;SDS011;23318;50.966;5.284;2023-03-13T11:58:29;1.70;;;0.70;;
37459;SDS011;23318;50.966;5.284;2023-03-13T12:01:17;1.58;;;0.75;;
37459;SDS011;23318;50.966;5.284;2023-03-13T12:06:22;0.85;;;0.50;;
37459;SDS011;23318;50.966;5.284;2023-03-13T12:08:50;1.48;;;0.60;;
37459;SDS011;23318;50.966;5.284;2023-03-13T12:11:27;2.15;;;0.60;;
37459;SDS011;23318;50.966;5.284;2023-03-13T12:16:42;4.97;;;0.68;;
37459;SDS011;23318;50.966;5.284;2023-03-13T12:19:17;0.50;;;0.32;;
37459;SDS011;23318;50.966;5.284;2023-03-13T12:21:50;1.48;;;0.80;;
37459;SDS011;23318;50.966;5.284;2023-03-13T12:27:07;1.70;;;0.50;;
37459;SDS011;23318;50.966;5.284;2023-03-13T12:29:42;1.95;;;0.68;;
37459;SDS011;23318;50.966;5.284;2023-03-13T12:32:33;1.17;;;0.43;;
37459;SDS011;23318;50.966;5.284;2023-03-13T12:35:20;0.43;;;0.32;;
37459;SDS011;23318;50.966;5.284;2023-03-13T12:41:14;0.40;;;0.30;;
37459;SDS011;23318;50.966;5.284;2023-03-13T12:43:49;1.30;;;0.40;;
37459;SDS011;23318;50.966;5.284;2023-03-13T13:00:24;2.70;;;0.90;;
37459;SDS011;23318;50.966;5.284;2023-03-13T13:03:54;3.72;;;0.55;;
37459;SDS011;23318;50.966;5.284;2023-03-13T13:08:43;2.38;;;0.63;;
37459;SDS011;23318;50.966;5.284;2023-03-13T13:14:02;1.55;;;0.50;;
37459;SDS011;23318;50.966;5.284;2023-03-13T13:16:41;1.75;;;0.75;;
37459;SDS011;23318;50.966;5.284;2023-03-13T13:24:53;5.65;;;0.73;;
37459;SDS011;23318;50.966;5.284;2023-03-13T13:35:26;3.30;;;0.90;;
37459;SDS011;23318;50.966;5.284;2023-03-13T13:43:31;3.47;;;1.05;;
37459;SDS011;23318;50.966;5.284;2023-03-13T13:51:35;2.25;;;0.95;;
37459;SDS011;23318;50.966;5.284;2023-03-13T13:54:02;3.92;;;0.82;;
37459;SDS011;23318;50.966;5.284;2023-03-13T13:56:43;3.72;;;0.98;;
37459;SDS011;23318;50.966;5.284;2023-03-13T14:07:27;3.92;;;1.00;;
37459;SDS011;23318;50.966;5.284;2023-03-13T14:12:45;2.60;;;0.80;;
37459;SDS011;23318;50.966;5.284;2023-03-13T14:15:31;3.63;;;1.10;;
37459;SDS011;23318;50.966;5.284;2023-03-13T14:18:01;2.30;;;0.98;;
37459;SDS011;23318;50.966;5.284;2023-03-13T14:20:36;3.92;;;1.00;;
37459;SDS011;23318;50.966;5.284;2023-03-13T14:23:04;2.80;;;1.15;;
37459;SDS011;23318;50.966;5.284;2023-03-13T14:25:45;4.30;;;1.30;;
37459;SDS011;23318;50.966;5.284;2023-03-13T14:30:48;6.90;;;1.10;;
37459;SDS011;23318;50.966;5.284;2023-03-13T14:33:15;2.63;;;1.05;;
37459;SDS011;23318;50.966;5.284;2023-03-13T14:35:41;2.92;;;1.23;;
37459;SDS011;23318;50.966;5.284;2023-03-13T14:38:14;2.72;;;1.05;;
37459;SDS011;23318;50.966;5.284;2023-03-13T14:40:51;4.05;;;1.58;;
37459;SDS011;23318;50.966;5.284;2023-03-13T14:43:19;3.55;;;1.05;;
37459;SDS011;23318;50.966;5.284;2023-03-13T14:48:28;2.65;;;1.13;;
37459;SDS011;23318;50.966;5.284;2023-03-13T14:51:07;2.50;;;0.90;;
37459;SDS011;23318;50.966;5.284;2023-03-13T14:53:33;4.32;;;1.33;;
37459;SDS011;23318;50.966;5.284;2023-03-13T14:56:12;2.40;;;0.70;;
37459;SDS011;23318;50.966;5.284;2023-03-13T14:58:39;3.75;;;1.10;;
37459;SDS011;23318;50.966;5.284;2023-03-13T15:01:39;2.53;;;0.77;;
37459;SDS011;23318;50.966;5.284;2023-03-13T15:03:58;3.13;;;0.98;;
37459;SDS011;23318;50.966;5.284;2023-03-13T15:06:24;5.10;;;0.98;;
37459;SDS011;23318;50.966;5.284;2023-03-13T15:14:02;4.57;;;1.10;;
37459;SDS011;23318;50.966;5.284;2023-03-13T15:16:28;4.57;;;1.00;;
37459;SDS011;23318;50.966;5.284;2023-03-13T15:18:55;2.60;;;1.08;;
37459;SDS011;23318;50.966;5.284;2023-03-13T15:21:25;3.47;;;1.05;;
37459;SDS011;23318;50.966;5.284;2023-03-13T15:24:00;5.85;;;1.50;;
37459;SDS011;23318;50.966;5.284;2023-03-13T15:26:35;3.22;;;1.17;;
37459;SDS011;23318;50.966;5.284;2023-03-13T15:29:01;3.90;;;0.90;;
37459;SDS011;23318;50.966;5.284;2023-03-13T15:31:27;5.65;;;1.20;;
37459;SDS011;23318;50.966;5.284;2023-03-13T15:33:57;7.72;;;1.52;;
37459;SDS011;23318;50.966;5.284;2023-03-13T15:36:24;7.93;;;1.40;;
37459;SDS011;23318;50.966;5.284;2023-03-13T15:38:51;4.80;;;1.10;;
37459;SDS011;23318;50.966;5.284;2023-03-13T15:41:17;5.75;;;1.08;;
37459;SDS011;23318;50.966;5.284;2023-03-13T15:43:43;8.02;;;1.38;;
37459;SDS011;23318;50.966;5.284;2023-03-13T15:46:11;5.80;;;1.25;;
37459;SDS011;23318;50.966;5.284;2023-03-13T15:48:38;2.42;;;0.95;;
37459;SDS011;23318;50.966;5.284;2023-03-13T15:51:05;3.17;;;0.95;;
37459;SDS011;23318;50.966;5.284;2023-03-13T15:53:36;5.18;;;1.92;;
37459;SDS011;23318;50.966;5.284;2023-03-13T15:56:02;6.88;;;1.55;;
37459;SDS011;23318;50.966;5.284;2023-03-13T15:58:41;1.95;;;1.08;;
37459;SDS011;23318;50.966;5.284;2023-03-13T16:01:09;6.60;;;1.67;;
37459;SDS011;23318;50.966;5.284;2023-03-13T16:03:37;5.05;;;1.60;;
37459;SDS011;23318;50.966;5.284;2023-03-13T16:06:08;6.82;;;1.35;;
37459;SDS011;23318;50.966;5.284;2023-03-13T16:08:38;5.80;;;1.77;;
37459;SDS011;23318;50.966;5.284;2023-03-13T16:11:04;4.97;;;1.45;;
37459;SDS011;23318;50.966;5.284;2023-03-13T16:13:30;4.10;;;1.48;;
37459;SDS011;23318;50.966;5.284;2023-03-13T16:15:56;3.13;;;1.45;;
37459;SDS011;23318;50.966;5.284;2023-03-13T16:18:23;8.65;;;2.40;;
37459;SDS011;23318;50.966;5.284;2023-03-13T16:20:50;4.30;;;1.50;;
37459;SDS011;23318;50.966;5.284;2023-03-13T16:23:17;7.13;;;2.15;;
37459;SDS011;23318;50.966;5.284;2023-03-13T16:25:43;6.22;;;1.85;;
37459;SDS011;23318;50.966;5.284;2023-03-13T16:28:10;3.85;;;1.80;;
37459;SDS011;23318;50.966;5.284;2023-03-13T16:30:37;9.85;;;2.20;;
37459;SDS011;23318;50.966;5.284;2023-03-13T16:33:05;3.95;;;1.25;;
37459;SDS011;23318;50.966;5.284;2023-03-13T16:35:31;7.07;;;1.73;;
37459;SDS011;23318;50.966;5.284;2023-03-13T16:37:57;4.28;;;1.30;;
37459;SDS011;23318;50.966;5.284;2023-03-13T16:40:24;5.47;;;1.27;;
37459;SDS011;23318;50.966;5.284;2023-03-13T16:42:52;6.70;;;1.83;;
37459;SDS011;23318;50.966;5.284;2023-03-13T16:45:17;10.65;;;2.13;;
37459;SDS011;23318;50.966;5.284;2023-03-13T16:47:44;7.13;;;1.42;;
37459;SDS011;23318;50.966;5.284;2023-03-13T16:50:18;6.65;;;2.13;;
37459;SDS011;23318;50.966;5.284;2023-03-13T16:52:48;4.93;;;1.98;;
37459;SDS011;23318;50.966;5.284;2023-03-13T16:55:15;4.80;;;1.33;;
37459;SDS011;23318;50.966;5.284;2023-03-13T16:57:42;6.45;;;1.60;;
37459;SDS011;23318;50.966;5.284;2023-03-13T17:00:10;9.85;;;2.05;;